Time;durP1;ratioP1;P1;durP2;ratioP2;P2;SDS_P1;SDS_P2;PMS_P1;PMS_P2;Temp;Humidity;BMP_temperature;BMP_pressure;BME280_temperature;BME280_humidity;BME280_pressure;Samples;Min_cycle;Max_cycle;Signal;HPM_P1;HPM_P2
2024/02/08 00:00:30;;;;;;;17.13;8.15;;;0.70;99.90;;;;;;7371594;19;20053;-66
2024/02/08 00:02:57;;;;;;;19.00;8.20;;;0.60;99.90;;;;;;7369224;19;20018;-67
2024/02/08 00:05:23;;;;;;;18.40;8.35;;;0.60;99.90;;;;;;7369173;19;20015;-67
2024/02/08 00:07:49;;;;;;;14.35;7.97;;;0.60;99.90;;;;;;7369799;19;20519;-68
2024/02/08 00:10:15;;;;;;;16.92;8.35;;;0.70;99.90;;;;;;7366962;19;20486;-69
2024/02/08 00:12:43;;;;;;;19.33;8.32;;;0.60;99.90;;;;;;7364409;19;20385;-69
2024/02/08 00:15:09;;;;;;;15.65;9.38;;;0.60;99.90;;;;;;7366382;19;20022;-69
2024/02/08 00:17:36;;;;;;;17.83;8.77;;;0.60;99.90;;;;;;7369594;19;20045;-69
2024/02/08 00:20:06;;;;;;;17.08;8.52;;;0.60;99.90;;;;;;7366317;19;20025;-66
2024/02/08 00:22:32;;;;;;;12.75;7.40;;;0.50;99.90;;;;;;7369205;19;20026;-66
2024/02/08 00:25:00;;;;;;;13.57;7.95;;;0.50;99.90;;;;;;7376645;19;20131;-66
2024/02/08 00:27:26;;;;;;;16.33;7.63;;;0.50;99.90;;;;;;7381144;19;20014;-67
2024/02/08 00:29:52;;;;;;;16.27;7.30;;;0.50;99.90;;;;;;7376854;19;20026;-66
2024/02/08 00:32:19;;;;;;;16.08;6.38;;;0.50;99.90;;;;;;7377433;19;20038;-66
2024/02/08 00:34:46;;;;;;;16.88;7.53;;;0.40;99.90;;;;;;7377382;19;21003;-67
2024/02/08 00:37:13;;;;;;;22.58;7.88;;;0.40;99.90;;;;;;7377691;19;20109;-68
2024/02/08 00:39:43;;;;;;;13.50;6.80;;;0.40;99.90;;;;;;7371309;19;20058;-69
2024/02/08 00:42:13;;;;;;;13.70;7.70;;;0.40;99.90;;;;;;7379915;19;20017;-66
2024/02/08 00:44:43;;;;;;;10.60;6.22;;;0.50;99.90;;;;;;7372247;19;20088;-67
2024/02/08 00:47:11;;;;;;;17.85;7.57;;;0.50;99.90;;;;;;7377165;19;20767;-68
2024/02/08 00:49:41;;;;;;;13.45;6.93;;;0.50;99.90;;;;;;7377961;19;20653;-67
2024/02/08 00:52:09;;;;;;;16.23;6.68;;;0.60;99.90;;;;;;7378155;19;20082;-68
2024/02/08 00:54:36;;;;;;;14.65;6.85;;;0.60;99.90;;;;;;7377363;19;20094;-68
2024/02/08 00:57:10;;;;;;;14.27;6.13;;;0.60;99.90;;;;;;7376786;19;20033;-68
2024/02/08 00:59:39;;;;;;;11.95;6.18;;;0.60;99.90;;;;;;7377580;19;20018;-68
2024/02/08 01:02:06;;;;;;;16.27;6.35;;;0.60;99.90;;;;;;7375796;19;20015;-68
2024/02/08 01:04:33;;;;;;;11.80;5.75;;;0.70;99.90;;;;;;7375989;19;20029;-69
2024/02/08 01:07:00;;;;;;;14.25;5.97;;;0.60;99.90;;;;;;7380425;19;20371;-68
2024/02/08 01:09:26;;;;;;;13.73;5.22;;;0.60;99.90;;;;;;7371823;19;20057;-66
2024/02/08 01:11:53;;;;;;;12.15;5.50;;;0.60;99.90;;;;;;7374889;19;20018;-66
2024/02/08 01:14:21;;;;;;;12.00;5.25;;;0.60;99.90;;;;;;7372222;19;20035;-66
2024/02/08 01:16:51;;;;;;;16.63;6.00;;;0.60;99.90;;;;;;7376975;19;20026;-66
2024/02/08 01:19:22;;;;;;;11.48;6.00;;;0.60;99.90;;;;;;7375556;19;20491;-67
2024/02/08 01:21:50;;;;;;;10.27;6.38;;;0.60;99.90;;;;;;7374548;19;20018;-66
2024/02/08 01:24:18;;;;;;;14.80;5.18;;;0.60;99.90;;;;;;7373890;19;20501;-66
2024/02/08 01:26:51;;;;;;;10.35;5.28;;;0.60;99.90;;;;;;7375418;19;20597;-66
2024/02/08 01:29:18;;;;;;;17.42;5.85;;;0.70;99.90;;;;;;7376198;19;20018;-67
2024/02/08 01:31:44;;;;;;;13.65;4.82;;;0.60;99.90;;;;;;7369737;19;20548;-67
2024/02/08 01:34:11;;;;;;;10.88;5.05;;;0.70;99.90;;;;;;7373656;19;20018;-67
2024/02/08 01:36:40;;;;;;;14.18;5.28;;;0.70;99.90;;;;;;7368901;19;20022;-66
2024/02/08 01:39:12;;;;;;;12.95;5.28;;;0.70;99.90;;;;;;7373770;19;20417;-67
2024/02/08 01:41:42;;;;;;;19.33;5.97;;;0.60;99.90;;;;;;7370826;19;20018;-66
2024/02/08 01:44:09;;;;;;;9.10;5.07;;;0.70;99.90;;;;;;7375474;19;20014;-66
2024/02/08 01:46:38;;;;;;;11.18;5.70;;;0.60;99.90;;;;;;7373262;19;20018;-67
2024/02/08 01:49:19;;;;;;;16.75;6.10;;;0.60;99.90;;;;;;7374517;19;20018;-66
2024/02/08 01:51:46;;;;;;;12.35;5.40;;;0.70;99.90;;;;;;7374414;19;20018;-66
2024/02/08 01:54:14;;;;;;;8.30;5.10;;;0.60;99.90;;;;;;7373837;19;20110;-65
2024/02/08 01:56:44;;;;;;;12.93;5.85;;;0.60;99.90;;;;;;7372803;19;20022;-66
2024/02/08 01:59:13;;;;;;;12.38;4.97;;;0.70;99.90;;;;;;7376653;19;20084;-67
2024/02/08 02:01:46;;;;;;;14.25;4.95;;;0.70;99.90;;;;;;7376143;19;20082;-67
2024/02/08 02:04:15;;;;;;;12.77;5.65;;;0.60;99.90;;;;;;7369896;19;20089;-68
2024/02/08 02:06:43;;;;;;;10.70;5.43;;;0.60;99.90;;;;;;7375526;19;20024;-67
2024/02/08 02:09:24;;;;;;;10.10;5.70;;;0.50;99.90;;;;;;7371158;19;20056;-67
2024/02/08 02:12:02;;;;;;;10.23;5.13;;;0.50;99.90;;;;;;7373364;19;20620;-67
2024/02/08 02:14:30;;;;;;;12.15;5.20;;;0.50;99.90;;;;;;7374932;19;20081;-70
2024/02/08 02:17:10;;;;;;;11.95;6.00;;;0.50;99.90;;;;;;7371344;19;20074;-69
2024/02/08 02:19:38;;;;;;;11.07;5.35;;;0.40;99.90;;;;;;7373228;19;20014;-67
2024/02/08 02:22:07;;;;;;;10.63;5.13;;;0.50;99.90;;;;;;7372976;19;20074;-67
2024/02/08 02:24:40;;;;;;;9.85;5.60;;;0.40;99.90;;;;;;7373802;19;20043;-67
2024/02/08 02:27:09;;;;;;;11.77;5.90;;;0.40;99.90;;;;;;7376386;19;20074;-68
2024/02/08 02:29:40;;;;;;;12.23;5.38;;;0.40;99.90;;;;;;7374155;19;20018;-68
2024/02/08 02:32:15;;;;;;;11.77;6.47;;;0.40;99.90;;;;;;7371263;19;20101;-68
2024/02/08 02:34:44;;;;;;;13.85;6.90;;;0.30;99.90;;;;;;7373162;19;20049;-66
2024/02/08 02:37:11;;;;;;;13.15;6.28;;;0.30;99.90;;;;;;7371143;19;20090;-66
2024/02/08 02:39:37;;;;;;;13.52;6.40;;;0.30;99.90;;;;;;7372487;19;20022;-67
2024/02/08 02:42:04;;;;;;;10.85;5.93;;;0.30;99.90;;;;;;7373328;19;20022;-67
2024/02/08 02:44:30;;;;;;;17.42;7.38;;;0.20;99.90;;;;;;7363707;19;20014;-67
2024/02/08 02:46:56;;;;;;;10.85;7.15;;;0.30;99.90;;;;;;7371100;19;20792;-67
2024/02/08 02:49:23;;;;;;;15.38;7.28;;;0.20;99.90;;;;;;7371494;19;20022;-67
2024/02/08 02:51:50;;;;;;;12.38;7.70;;;0.20;99.90;;;;;;7373604;19;20609;-66
2024/02/08 02:54:16;;;;;;;14.55;7.35;;;0.20;99.90;;;;;;7365176;19;20014;-66
2024/02/08 02:56:47;;;;;;;11.32;6.82;;;0.10;99.90;;;;;;7371803;19;20478;-67
2024/02/08 02:59:17;;;;;;;10.80;7.43;;;0.10;99.90;;;;;;7373042;19;20028;-67
2024/02/08 03:01:47;;;;;;;11.65;6.82;;;0.00;99.90;;;;;;7371115;19;20019;-67
2024/02/08 03:04:17;;;;;;;12.18;6.50;;;0.00;99.90;;;;;;7370847;19;20011;-66
2024/02/08 03:06:45;;;;;;;15.27;8.27;;;0.00;99.90;;;;;;7372386;19;20038;-68
2024/02/08 03:09:15;;;;;;;13.25;6.93;;;0.10;99.90;;;;;;7370713;19;20014;-67
2024/02/08 03:11:42;;;;;;;14.65;7.57;;;0.10;99.90;;;;;;7372865;19;20066;-67
2024/02/08 03:14:10;;;;;;;15.13;7.28;;;0.10;99.90;;;;;;7369906;19;21732;-67
2024/02/08 03:16:36;;;;;;;14.70;8.00;;;0.10;99.90;;;;;;7371765;19;20019;-67
2024/02/08 03:19:05;;;;;;;11.90;7.32;;;0.20;99.90;;;;;;7370627;19;20539;-67
2024/02/08 03:21:35;;;;;;;17.65;7.75;;;0.30;99.90;;;;;;7371277;19;20039;-66
2024/02/08 03:24:08;;;;;;;13.70;8.27;;;0.30;99.90;;;;;;7370695;19;20022;-66
2024/02/08 03:26:43;;;;;;;10.77;7.10;;;0.30;99.90;;;;;;7372205;19;20030;-65
2024/02/08 03:29:11;;;;;;;18.63;7.25;;;0.30;99.90;;;;;;7373981;19;20693;-66
2024/02/08 03:31:46;;;;;;;12.20;6.97;;;0.40;99.90;;;;;;7372217;19;20379;-66
2024/02/08 03:34:29;;;;;;;17.08;7.80;;;0.40;99.90;;;;;;7370360;19;20018;-66
2024/02/08 03:36:59;;;;;;;14.18;7.25;;;0.40;99.90;;;;;;7373607;19;20026;-66
2024/02/08 03:39:26;;;;;;;13.63;6.95;;;0.50;99.90;;;;;;7372531;19;20100;-69
2024/02/08 03:42:02;;;;;;;10.20;6.97;;;0.50;99.90;;;;;;7371863;19;20404;-69
2024/02/08 03:44:30;;;;;;;13.32;7.45;;;0.50;99.90;;;;;;7366459;19;20107;-69
2024/02/08 03:47:04;;;;;;;17.10;7.60;;;0.50;99.90;;;;;;7371288;19;20018;-69
2024/02/08 03:49:32;;;;;;;9.45;7.13;;;0.50;99.90;;;;;;7367639;19;20114;-69
2024/02/08 03:51:58;;;;;;;13.65;7.05;;;0.50;99.90;;;;;;7373408;19;20109;-69
2024/02/08 03:54:30;;;;;;;18.48;8.02;;;0.50;99.90;;;;;;7371621;19;20018;-69
2024/02/08 03:56:59;;;;;;;;;;;0.50;99.90;;;;;;7371542;19;20029;-69
2024/02/08 03:59:26;;;;;;;16.08;8.23;;;0.50;99.90;;;;;;7370979;19;20592;-69
2024/02/08 04:02:09;;;;;;;15.00;6.75;;;0.40;99.90;;;;;;7368490;19;20007;-70
2024/02/08 04:04:50;;;;;;;18.92;7.00;;;0.40;99.90;;;;;;7370356;19;20014;-69
2024/02/08 04:07:34;;;;;;;14.40;6.65;;;0.40;99.90;;;;;;7369432;19;20465;-69
2024/02/08 04:10:18;;;;;;;18.95;8.13;;;0.40;99.90;;;;;;7370642;19;20059;-69
2024/02/08 04:54:02;;;;;;;14.65;8.00;;;0.60;99.90;;;;;;7370266;19;20029;-69
2024/02/08 04:56:29;;;;;;;13.23;9.25;;;0.60;99.90;;;;;;7367917;19;20028;-69
2024/02/08 04:58:58;;;;;;;13.00;7.90;;;0.60;99.90;;;;;;7371282;19;20043;-68
2024/02/08 05:01:28;;;;;;;15.77;8.43;;;0.60;99.90;;;;;;7364910;19;20508;-68
2024/02/08 05:03:57;;;;;;;15.00;9.00;;;0.60;99.90;;;;;;7368529;19;20809;-69
2024/02/08 05:06:25;;;;;;;14.32;8.90;;;0.60;99.90;;;;;;7368942;19;20023;-68
2024/02/08 05:08:59;;;;;;;15.20;9.27;;;0.60;99.90;;;;;;7370687;19;20022;-68
2024/02/08 05:11:28;;;;;;;;;;;0.70;99.90;;;;;;7377396;19;20270;-69
2024/02/08 05:14:00;;;;;;;17.65;9.07;;;0.70;99.90;;;;;;7375756;19;20311;-69
2024/02/08 05:16:36;;;;;;;18.55;7.75;;;0.60;99.90;;;;;;7371754;19;20018;-67
2024/02/08 05:19:04;;;;;;;13.77;7.90;;;0.70;99.90;;;;;;7375539;19;20034;-67
2024/02/08 05:21:33;;;;;;;11.98;7.72;;;0.70;99.90;;;;;;7372227;19;22395;-67
2024/02/08 05:24:01;;;;;;;19.50;8.75;;;0.80;99.90;;;;;;7375261;19;20026;-69
2024/02/08 05:26:31;;;;;;;14.90;8.45;;;0.80;99.90;;;;;;7370743;19;20018;-67
2024/02/08 05:28:58;;;;;;;19.17;9.15;;;0.80;99.90;;;;;;7374863;19;20637;-68
2024/02/08 05:31:27;;;;;;;13.25;8.75;;;0.80;99.90;;;;;;7373251;19;20023;-68
2024/02/08 05:33:57;;;;;;;42.33;10.50;;;0.90;99.90;;;;;;7370904;19;20654;-68
2024/02/08 05:36:24;;;;;;;19.25;8.88;;;0.90;99.90;;;;;;7377344;19;20025;-70
2024/02/08 05:38:56;;;;;;;15.13;8.23;;;0.90;99.90;;;;;;7377633;19;20014;-69
2024/02/08 05:41:22;;;;;;;18.10;8.80;;;0.90;99.90;;;;;;7376919;19;20031;-70
2024/02/08 05:43:51;;;;;;;15.57;8.00;;;0.90;99.90;;;;;;7376009;19;20026;-69
2024/02/08 05:46:24;;;;;;;20.90;8.32;;;0.90;99.90;;;;;;7375594;19;20082;-69
2024/02/08 05:51:54;;;;;;;13.35;8.13;;;0.90;99.90;;;;;;7376033;19;20102;-68
2024/02/08 05:54:22;;;;;;;13.95;8.32;;;0.90;99.90;;;;;;7374951;19;20111;-69
2024/02/08 05:56:49;;;;;;;15.00;8.38;;;1.00;99.90;;;;;;7375113;19;20018;-68
2024/02/08 05:59:18;;;;;;;12.40;7.70;;;1.00;99.90;;;;;;7376749;19;20097;-69
2024/02/08 06:01:46;;;;;;;13.13;8.27;;;1.00;99.90;;;;;;7375715;19;20073;-68
2024/02/08 06:04:22;;;;;;;16.10;8.02;;;1.00;99.90;;;;;;7378697;19;20101;-69
2024/02/08 06:06:53;;;;;;;13.68;8.20;;;1.00;99.90;;;;;;7374486;19;20021;-70
2024/02/08 06:12:36;;;;;;;14.13;8.35;;;1.00;99.90;;;;;;7369945;19;20240;-67
2024/02/08 06:15:14;;;;;;;20.73;8.05;;;1.00;99.90;;;;;;7374732;19;20018;-66
2024/02/08 06:17:45;;;;;;;12.80;7.50;;;1.00;99.90;;;;;;7374815;19;20010;-68
2024/02/08 06:20:14;;;;;;;13.73;7.53;;;1.00;99.90;;;;;;7375177;19;20026;-68
2024/02/08 06:22:43;;;;;;;22.23;7.68;;;1.00;99.90;;;;;;7373569;19;20018;-68
2024/02/08 06:25:24;;;;;;;17.48;8.70;;;1.00;99.90;;;;;;7375556;19;20026;-67
2024/02/08 06:27:50;;;;;;;16.80;8.33;;;0.90;99.90;;;;;;7374086;19;21306;-67
2024/02/08 06:30:22;;;;;;;15.55;8.25;;;1.00;99.90;;;;;;7374441;19;20573;-66
2024/02/08 06:32:57;;;;;;;13.00;7.82;;;1.10;99.90;;;;;;7370967;19;20593;-66
2024/02/08 06:35:28;;;;;;;16.20;8.60;;;1.00;99.90;;;;;;7376661;19;20028;-65
2024/02/08 06:38:03;;;;;;;14.45;7.80;;;1.10;99.90;;;;;;7374486;19;20114;-67
2024/02/08 06:40:50;;;;;;;14.00;8.02;;;1.10;99.90;;;;;;7373893;19;20029;-67
2024/02/08 07:37:59;;;;;;;17.40;8.10;;;1.40;99.90;;;;;;7365590;19;20014;-66
2024/02/08 07:40:27;;;;;;;20.15;8.40;;;1.40;99.90;;;;;;7369714;19;20086;-66
2024/02/08 07:45:49;;;;;;;13.15;7.25;;;1.40;99.90;;;;;;7368854;19;20070;-70
2024/02/08 07:51:04;;;;;;;21.20;7.90;;;1.40;99.90;;;;;;7374485;19;20330;-65
2024/02/08 07:53:35;;;;;;;18.38;7.55;;;1.50;99.90;;;;;;7374316;19;20088;-66
2024/02/08 07:58:56;;;;;;;25.13;8.27;;;1.60;99.90;;;;;;7373412;19;20745;-66
2024/02/08 08:01:32;;;;;;;16.73;8.18;;;1.60;99.90;;;;;;7372534;19;20490;-66
2024/02/08 08:04:00;;;;;;;20.88;8.35;;;1.70;99.90;;;;;;7374353;19;20070;-66
2024/02/08 08:06:34;;;;;;;20.77;8.15;;;1.70;99.90;;;;;;7373020;19;20780;-66
2024/02/08 08:09:18;;;;;;;19.00;7.80;;;1.80;99.90;;;;;;7371023;19;20023;-66
2024/02/08 08:11:51;;;;;;;19.90;7.25;;;1.80;99.90;;;;;;7369520;19;20018;-66
2024/02/08 08:17:16;;;;;;;15.15;6.95;;;1.90;99.90;;;;;;7372425;19;20011;-66
2024/02/08 08:19:46;;;;;;;16.75;8.40;;;1.90;99.90;;;;;;7370750;19;20053;-69
2024/02/08 08:22:18;;;;;;;17.58;7.32;;;1.90;99.90;;;;;;7369908;19;20609;-69
2024/02/08 08:25:11;;;;;;;19.38;7.53;;;2.00;99.90;;;;;;7370791;19;20034;-69
2024/02/08 08:27:47;;;;;;;16.73;7.43;;;2.00;99.90;;;;;;7369087;19;20028;-69
2024/02/08 08:30:27;;;;;;;14.10;6.57;;;2.10;99.90;;;;;;7371175;19;20018;-67
2024/02/08 08:38:28;;;;;;;14.25;7.28;;;2.30;99.90;;;;;;7361646;19;20018;-65
2024/02/08 08:41:06;;;;;;;16.45;7.63;;;2.40;99.90;;;;;;7360946;19;20029;-69
2024/02/08 08:43:36;;;;;;;12.55;7.15;;;2.50;99.90;;;;;;7364834;19;20130;-66
2024/02/08 08:46:09;;;;;;;14.50;6.38;;;2.60;99.90;;;;;;7370196;19;20364;-69
2024/02/08 08:48:35;;;;;;;12.65;6.47;;;2.70;99.90;;;;;;7376937;19;20505;-66
2024/02/08 08:51:12;;;;;;;13.80;6.70;;;2.80;99.90;;;;;;7376484;19;20034;-65
2024/02/08 08:53:44;;;;;;;19.60;8.57;;;2.90;99.90;;;;;;7378868;19;20023;-68
2024/02/08 08:56:11;;;;;;;16.75;6.95;;;3.10;99.90;;;;;;7377274;19;20010;-68
2024/02/08 08:58:39;;;;;;;12.43;6.38;;;3.30;99.90;;;;;;7380552;19;20486;-67
2024/02/08 09:01:15;;;;;;;17.60;6.20;;;3.50;99.90;;;;;;7374038;19;20035;-68
2024/02/08 09:03:43;;;;;;;13.85;6.03;;;3.60;99.90;;;;;;7379111;19;20084;-66
2024/02/08 09:06:13;;;;;;;12.52;5.05;;;3.60;99.90;;;;;;7371310;19;20018;-67
2024/02/08 09:08:59;;;;;;;13.75;5.43;;;3.60;99.90;;;;;;7371972;19;20018;-67
2024/02/08 09:11:26;;;;;;;14.45;5.30;;;3.60;99.90;;;;;;7378967;19;20011;-69
2024/02/08 09:13:55;;;;;;;20.40;6.20;;;3.60;99.90;;;;;;7378140;19;20026;-68
2024/02/08 09:21:32;;;;;;;17.60;5.72;;;3.50;99.90;;;;;;7378493;19;20482;-68
2024/02/08 09:24:04;;;;;;;13.95;5.40;;;3.50;99.90;;;;;;7376452;19;20099;-67
2024/02/08 09:29:24;;;;;;;12.63;5.40;;;3.50;99.90;;;;;;7378571;19;20492;-67
2024/02/08 09:31:58;;;;;;;17.77;6.00;;;3.60;99.90;;;;;;7376419;19;20448;-69
2024/02/08 09:34:38;;;;;;;17.58;6.03;;;3.60;99.90;;;;;;7378503;19;20212;-69
2024/02/08 09:37:08;;;;;;;16.70;5.30;;;3.60;99.90;;;;;;7377030;19;20039;-69
2024/02/08 09:42:54;;;;;;;13.65;5.82;;;3.60;99.90;;;;;;7374030;19;20889;-69
2024/02/08 09:48:06;;;;;;;14.85;5.15;;;3.80;99.90;;;;;;7373514;19;20768;-66
2024/02/08 09:50:36;;;;;;;15.38;5.13;;;3.80;99.90;;;;;;7376450;19;20031;-68
2024/02/08 09:53:27;;;;;;;12.05;4.82;;;3.90;99.90;;;;;;7374906;19;20092;-67
2024/02/08 09:56:15;;;;;;;13.75;5.45;;;4.00;99.90;;;;;;7364448;19;20025;-67
2024/02/08 09:58:55;;;;;;;14.18;4.82;;;4.10;99.90;;;;;;7360417;19;20015;-67
2024/02/08 10:01:30;;;;;;;14.18;4.75;;;4.20;99.90;;;;;;7360257;19;20028;-66
2024/02/08 10:04:07;;;;;;;17.02;5.30;;;4.30;99.90;;;;;;7364120;19;20030;-66
2024/02/08 10:09:34;;;;;;;14.35;4.40;;;4.30;99.90;;;;;;7363727;19;20026;-69
2024/02/08 10:12:08;;;;;;;13.60;4.35;;;4.40;99.90;;;;;;7358961;19;20523;-68
2024/02/08 10:14:35;;;;;;;12.27;4.22;;;4.50;99.90;;;;;;7371331;19;20022;-68
2024/02/08 10:17:40;;;;;;;18.05;4.85;;;4.50;99.90;;;;;;7375569;19;20022;-69
2024/02/08 10:22:57;;;;;;;17.35;5.32;;;4.70;99.90;;;;;;7375519;19;22028;-67
2024/02/08 10:28:13;;;;;;;12.48;3.75;;;4.90;99.90;;;;;;7375155;19;20015;-69
2024/02/08 10:30:44;;;;;;;12.52;3.47;;;4.90;99.90;;;;;;7375299;19;20102;-69
2024/02/08 10:33:14;;;;;;;18.50;3.78;;;4.90;99.90;;;;;;7374471;19;20018;-68
2024/02/08 10:35:47;;;;;;;11.60;3.40;;;4.90;99.90;;;;;;7372120;19;20015;-69
2024/02/08 10:38:32;;;;;;;13.10;3.97;;;5.00;99.90;;;;;;7377387;19;20029;-69
2024/02/08 10:40:59;;;;;;;12.85;3.40;;;4.90;99.90;;;;;;7374736;19;20800;-69
2024/02/08 10:43:25;;;;;;;13.05;3.90;;;4.90;99.90;;;;;;7373366;19;20018;-67
2024/02/08 10:45:53;;;;;;;11.88;4.07;;;4.90;99.90;;;;;;7372416;19;20018;-67
2024/02/08 10:48:22;;;;;;;11.77;3.38;;;4.90;99.90;;;;;;7375363;19;20507;-69
2024/02/08 10:50:49;;;;;;;13.75;3.95;;;4.80;99.90;;;;;;7372604;19;20014;-68
2024/02/08 10:53:39;;;;;;;10.32;3.88;;;4.80;99.90;;;;;;7373242;19;20025;-68
2024/02/08 10:56:14;;;;;;;10.27;2.97;;;4.80;99.90;;;;;;7376171;19;20011;-68
2024/02/08 11:01:37;;;;;;;10.65;4.55;;;4.80;99.90;;;;;;7372884;19;20459;-68
2024/02/08 11:04:17;;;;;;;16.33;4.35;;;4.80;99.90;;;;;;7375573;19;20933;-69
2024/02/08 11:07:33;;;;;;;10.95;3.75;;;4.80;99.90;;;;;;7375005;19;20105;-69
2024/02/08 11:09:46;;;;;;;15.82;4.25;;;4.80;99.90;;;;;;7371007;19;20078;-69
2024/02/08 11:12:29;;;;;;;17.50;4.07;;;4.80;99.90;;;;;;7371412;19;20128;-69
2024/02/08 11:15:15;;;;;;;14.20;5.45;;;4.80;99.90;;;;;;7374690;19;20028;-67
2024/02/08 11:17:52;;;;;;;11.93;5.00;;;4.90;99.90;;;;;;7372980;19;20010;-68
2024/02/08 11:23:25;;;;;;;17.42;5.55;;;4.90;99.90;;;;;;7373613;19;20536;-69
2024/02/08 11:25:52;;;;;;;15.40;4.53;;;4.90;99.90;;;;;;7374643;19;20023;-68
2024/02/08 11:28:28;;;;;;;14.68;4.95;;;4.80;99.90;;;;;;7374994;19;20017;-68
2024/02/08 11:30:54;;;;;;;14.93;4.35;;;4.90;99.90;;;;;;7370022;19;20038;-68
2024/02/08 11:33:32;;;;;;;18.70;8.13;;;4.90;99.90;;;;;;7371940;19;20014;-68
2024/02/08 11:36:16;;;;;;;19.40;9.55;;;4.90;99.90;;;;;;7374157;19;20014;-67
2024/02/08 11:38:46;;;;;;;15.98;4.95;;;4.90;99.90;;;;;;7371608;19;20898;-67
2024/02/08 11:41:15;;;;;;;17.38;5.68;;;4.90;99.90;;;;;;7371734;19;20500;-68
2024/02/08 11:43:47;;;;;;;12.73;4.00;;;4.90;99.90;;;;;;7374306;19;20010;-67
2024/02/08 11:46:18;;;;;;;12.15;3.85;;;4.90;99.90;;;;;;7369991;19;20094;-68
2024/02/08 11:48:48;;;;;;;12.93;3.97;;;4.90;99.90;;;;;;7374063;19;20021;-67
2024/02/08 11:51:16;;;;;;;9.50;2.90;;;4.80;99.90;;;;;;7368022;19;20010;-68
2024/02/08 11:53:44;;;;;;;12.30;3.20;;;4.80;99.90;;;;;;7372346;19;20034;-67
2024/02/08 11:56:15;;;;;;;18.58;7.32;;;4.80;99.90;;;;;;7370907;19;20118;-67
2024/02/08 11:58:43;;;;;;;30.55;18.55;;;4.80;99.90;;;;;;7373292;19;20018;-68
2024/02/08 12:01:13;;;;;;;8.57;3.53;;;4.80;99.90;;;;;;7371353;19;20023;-68
2024/02/08 12:03:42;;;;;;;9.10;3.00;;;4.80;99.90;;;;;;7372036;19;22051;-68
2024/02/08 12:06:17;;;;;;;10.45;3.60;;;4.80;99.90;;;;;;7372293;19;20102;-68
2024/02/08 12:08:57;;;;;;;19.48;8.63;;;4.80;99.90;;;;;;7373844;19;20019;-69
2024/02/08 12:11:29;;;;;;;10.70;3.72;;;4.70;99.90;;;;;;7371746;19;20645;-69
2024/02/08 12:14:11;;;;;;;14.77;3.15;;;4.70;99.90;;;;;;7370966;19;20022;-69
2024/02/08 12:16:50;;;;;;;12.65;3.90;;;4.70;99.90;;;;;;7372809;19;20062;-69
2024/02/08 12:19:17;;;;;;;11.82;3.85;;;4.70;99.90;;;;;;7376048;19;20059;-67
2024/02/08 12:21:56;;;;;;;11.55;3.78;;;4.60;99.90;;;;;;7376030;19;20030;-67
2024/02/08 12:24:24;;;;;;;13.18;4.35;;;4.60;99.90;;;;;;7380209;19;20018;-68
2024/02/08 12:26:54;;;;;;;11.27;3.80;;;4.60;99.90;;;;;;7378115;19;20015;-68
2024/02/08 12:29:24;;;;;;;11.27;4.03;;;4.60;99.90;;;;;;7377754;19;20055;-68
2024/02/08 12:31:57;;;;;;;12.10;3.63;;;4.50;99.90;;;;;;7377267;19;20010;-68
2024/02/08 12:34:32;;;;;;;12.88;4.30;;;4.60;99.90;;;;;;7376527;19;20018;-69
2024/02/08 12:37:05;;;;;;;9.98;3.97;;;4.50;99.90;;;;;;7382631;19;20018;-68
2024/02/08 12:39:35;;;;;;;15.02;4.03;;;4.50;99.90;;;;;;7376792;19;20015;-69
2024/02/08 12:42:04;;;;;;;13.75;3.85;;;4.50;99.90;;;;;;7371706;19;20026;-69
2024/02/08 12:44:36;;;;;;;13.93;4.65;;;4.50;99.90;;;;;;7374024;19;20014;-69
2024/02/08 12:47:06;;;;;;;16.27;4.55;;;4.50;99.90;;;;;;7377655;19;20014;-68
2024/02/08 12:49:34;;;;;;;13.63;4.20;;;4.50;99.90;;;;;;7378611;19;20378;-67
2024/02/08 12:52:09;;;;;;;12.77;4.82;;;4.50;99.90;;;;;;7378138;19;20086;-67
2024/02/08 12:54:37;;;;;;;11.35;3.63;;;4.60;99.90;;;;;;7378817;19;20089;-68
2024/02/08 12:57:12;;;;;;;11.48;4.05;;;4.50;99.90;;;;;;7378492;19;20026;-68
2024/02/08 12:59:41;;;;;;;13.63;4.50;;;4.60;99.90;;;;;;7379697;19;20727;-69
2024/02/08 13:02:17;;;;;;;15.05;4.28;;;4.60;99.90;;;;;;7373509;19;20438;-69
2024/02/08 13:04:48;;;;;;;14.18;4.97;;;4.60;99.90;;;;;;7378923;19;20379;-69
2024/02/08 13:07:15;;;;;;;15.23;4.53;;;4.50;99.90;;;;;;7376665;19;20127;-69
2024/02/08 13:09:43;;;;;;;7.97;1.88;;;4.50;99.90;;;;;;7380253;19;20036;-69
2024/02/08 13:12:14;;;;;;;6.60;1.80;;;4.40;99.90;;;;;;7375393;19;20018;-69
2024/02/08 13:14:57;;;;;;;6.32;1.90;;;4.20;99.90;;;;;;7378257;19;20018;-69
2024/02/08 13:17:27;;;;;;;5.47;1.48;;;4.10;99.90;;;;;;7378020;19;20014;-70
2024/02/08 13:19:57;;;;;;;5.32;1.55;;;4.00;99.90;;;;;;7377491;19;20018;-68
2024/02/08 13:22:25;;;;;;;7.07;2.50;;;3.90;99.90;;;;;;7378337;19;20864;-69
2024/02/08 13:24:52;;;;;;;9.98;2.50;;;3.90;99.90;;;;;;7379024;19;20045;-70
2024/02/08 13:27:24;;;;;;;5.60;2.35;;;3.80;99.90;;;;;;7380387;19;20111;-68
2024/02/08 13:30:00;;;;;;;8.02;2.70;;;3.70;99.90;;;;;;7376835;19;20019;-70
2024/02/08 13:32:29;;;;;;;6.50;1.40;;;3.70;99.90;;;;;;7375329;19;20018;-69
2024/02/08 13:34:57;;;;;;;3.38;1.35;;;3.60;99.90;;;;;;7376643;19;20053;-69
2024/02/08 13:37:26;;;;;;;4.35;1.10;;;3.30;99.90;;;;;;7377424;19;20022;-68
2024/02/08 13:40:07;;;;;;;2.72;1.20;;;3.10;99.90;;;;;;7375569;19;20014;-68
2024/02/08 13:42:33;;;;;;;5.07;1.85;;;3.00;99.90;;;;;;7374517;19;20087;-69
2024/02/08 13:45:03;;;;;;;6.57;2.13;;;2.80;99.90;;;;;;7375370;19;20053;-69
2024/02/08 13:47:37;;;;;;;8.27;2.83;;;2.60;99.90;;;;;;7376469;19;20022;-69
2024/02/08 13:50:10;;;;;;;4.00;1.95;;;2.50;99.90;;;;;;7377029;19;20022;-69
2024/02/08 13:52:38;;;;;;;4.35;2.38;;;2.40;99.90;;;;;;7374100;19;20049;-69
2024/02/08 13:55:07;;;;;;;5.30;2.38;;;2.40;99.90;;;;;;7376087;19;20037;-69
2024/02/08 13:57:34;;;;;;;7.38;2.67;;;2.30;99.90;;;;;;7374843;19;20387;-68
2024/02/08 14:00:03;;;;;;;6.55;2.83;;;2.30;99.90;;;;;;7375079;19;20491;-68
2024/02/08 14:02:39;;;;;;;8.10;3.15;;;2.30;99.90;;;;;;7371833;19;20093;-68
2024/02/08 14:05:16;;;;;;;5.78;2.78;;;2.20;99.90;;;;;;7373758;19;20497;-68
2024/02/08 14:07:52;;;;;;;8.05;3.95;;;2.20;99.90;;;;;;7375602;19;20029;-67
2024/02/08 14:10:27;;;;;;;4.82;3.00;;;2.10;99.90;;;;;;7375237;19;20033;-67
2024/02/08 14:13:06;;;;;;;12.10;3.33;;;2.10;99.90;;;;;;7372395;19;20784;-67
2024/02/08 14:15:45;;;;;;;7.78;2.95;;;2.10;99.90;;;;;;7375437;19;20098;-67
2024/02/08 14:18:22;;;;;;;7.32;2.78;;;2.10;99.90;;;;;;7371212;19;20027;-67
2024/02/08 14:21:00;;;;;;;9.50;3.22;;;2.00;99.90;;;;;;7370897;19;20029;-67
2024/02/08 14:23:40;;;;;;;5.60;2.35;;;2.00;99.90;;;;;;7373596;19;20022;-67
2024/02/08 14:28:42;;;;;;;8.20;3.97;;;2.00;99.90;;;;;;7376372;19;20043;-67
2024/02/08 14:31:12;;;;;;;12.45;3.30;;;2.00;99.90;;;;;;7372070;19;20037;-66
2024/02/08 14:33:45;;;;;;;7.72;3.10;;;2.00;99.90;;;;;;7376855;19;20026;-67
2024/02/08 14:36:13;;;;;;;6.10;2.75;;;2.00;99.90;;;;;;7373908;19;20023;-66
2024/02/08 14:38:40;;;;;;;9.02;4.05;;;2.00;99.90;;;;;;7378512;19;20022;-67
2024/02/08 14:41:25;;;;;;;8.95;2.67;;;2.00;99.90;;;;;;7374560;19;20106;-67
2024/02/08 14:43:54;;;;;;;7.90;2.80;;;1.90;99.90;;;;;;7370350;19;20015;-68
2024/02/08 14:46:25;;;;;;;6.78;3.88;;;1.90;99.90;;;;;;7370613;19;20014;-67
2024/02/08 14:48:53;;;;;;;7.07;2.70;;;1.90;99.90;;;;;;7373836;19;20046;-66
2024/02/08 14:53:58;;;;;;;;;;;1.80;99.90;;;;;;7374672;19;20021;-66
2024/02/08 14:56:27;;;;;;;6.97;2.40;;;1.80;99.90;;;;;;7370862;19;19923;-66
2024/02/08 14:58:56;;;;;;;3.28;1.98;;;1.80;99.90;;;;;;7373795;19;20070;-66
2024/02/08 15:01:38;;;;;;;8.55;2.60;;;1.80;99.90;;;;;;7372277;19;20431;-64
2024/02/08 15:04:15;;;;;;;7.65;2.40;;;1.70;99.90;;;;;;7371099;19;20014;-66
2024/02/08 15:07:06;;;;;;;7.30;3.15;;;1.70;99.90;;;;;;7370240;19;20027;-66
2024/02/08 15:14:48;;;;;;;9.65;3.17;;;1.60;99.90;;;;;;7370897;19;20195;-66
2024/02/08 15:17:18;;;;;;;12.25;8.07;;;1.60;99.90;;;;;;7373717;19;20018;-68
2024/02/08 15:19:46;;;;;;;6.53;2.92;;;1.60;99.90;;;;;;7371804;19;20091;-67
2024/02/08 15:24:57;;;;;;;4.38;2.53;;;1.50;99.90;;;;;;7372314;19;20014;-68
2024/02/08 15:30:11;;;;;;;7.13;3.35;;;1.50;99.90;;;;;;7374877;19;20074;-66
2024/02/08 15:33:29;;;;;;;7.22;4.93;;;1.50;99.90;;;;;;7369587;19;20026;-65
2024/02/08 15:35:38;;;;;;;4.80;3.00;;;1.50;99.90;;;;;;7371022;19;20087;-66
2024/02/08 15:40:55;;;;;;;9.68;3.63;;;1.50;99.90;;;;;;7372037;19;20712;-68
2024/02/08 15:43:25;;;;;;;6.55;3.35;;;1.50;99.90;;;;;;7373179;19;20018;-66
2024/02/08 15:45:54;;;;;;;7.72;4.50;;;1.50;99.90;;;;;;7367963;19;20094;-66
2024/02/08 15:48:31;;;;;;;10.85;6.63;;;1.50;99.90;;;;;;7368513;19;20022;-66
2024/02/08 15:51:08;;;;;;;8.35;4.85;;;1.50;99.90;;;;;;7368378;19;20024;-66
2024/02/08 15:53:41;;;;;;;7.53;4.72;;;1.50;99.90;;;;;;7370593;19;20787;-68
2024/02/08 15:56:12;;;;;;;5.75;3.30;;;1.50;99.90;;;;;;7369474;19;20044;-67
2024/02/08 15:58:44;;;;;;;8.10;3.45;;;1.40;99.90;;;;;;7371981;19;20015;-68